Skip to main content.
 TIME   TEMPERATURE   WINDSPEED   DIRECTION   HUMIDITY   BAROMETER   RAINFALL 
5:30 25.9°C (78.6°F) 9.3 kmh (5.8 mph) NNE 68% 1014.6hPa (29.96 inHg) 0.0mm (0.00 in.)
4:30 27.3°C (81.1 °F) 5.6 kmh (3.5 mph) SW 65% 1014.9hPa (29.97 inHg) 0.0mm (0.00 in.)
3:30 26.0°C (78.8 °F) 5.6 kmh (3.5 mph) SW 63% 1014.9hPa (29.97 inHg) 0.0mm (0.00 in.)
2:30 27.3°C (81.1 °F) 7.4 kmh (4.6 mph) SW 60% 1015.4hPa (29.98 inHg) 0.0mm (0.00 in.)
1:30 27.3°C (81.1 °F) 14.8 kmh (9.2 mph) SW 61% 1015.7hPa (29.99 inHg) 0.0mm (0.00 in.)
12:24 25.5°C (77.9 °F) 11.1 kmh (6.9 mph) N 66% 1016.1hPa (30.01 inHg) 0.0mm (0.00 in.)
11:22 25.3°C (77.5 °F) 0.0 kmh (0.0 mph) N 66% 1016.3hPa (30.01 inHg) 0.0mm (0.00 in.)
10:22 25.2°C (77.4 °F) 7.4 kmh (4.6 mph) N 72% 1016.1hPa (30.01 inHg) 0.0mm (0.00 in.)
9:22 24.7°C (76.5 °F) 11.1 kmh (6.9 mph) N 78% 1015.9hPa (30.00 inHg) 0.0mm (0.00 in.)
8:21 24.8°C (76.6 °F) 0.0 kmh (0.0 mph) N 86% 1015.9hPa (30.00 inHg) 0.0mm (0.00 in.)
7:21 22.2°C (72.0 °F) 1.9 kmh (1.2 mph) N 91% 1015.7hPa (29.99 inHg) 0.0mm (0.00 in.)
6:21 21.3°C (70.3 °F) 0.0 kmh (0.0 mph) N 96% 1015.5hPa (29.99 inHg) 0.0mm (0.00 in.)
5:21 21.3°C (70.3 °F) 0.0 kmh (0.0 mph) N 95% 1015.1hPa (29.98 inHg) 0.0mm (0.00 in.)
4:21 21.3°C (70.3 °F) 0.0 kmh (0.0 mph) N 96% 1015.2hPa (29.98 inHg) 0.0mm (0.00 in.)
3:21 21.2°C (70.2 °F) 0.0 kmh (0.0 mph) N 94% 1015.5hPa (29.99 inHg) 0.0mm (0.00 in.)
2:21 21.2°C (70.2 °F) 0.0 kmh (0.0 mph) N 92% 1015.4hPa (29.98 inHg) 0.0mm (0.00 in.)
1:21 21.3°C (70.3 °F) 1.9 kmh (1.2 mph) N 92% 1015.6hPa (29.99 inHg) 0.0mm (0.00 in.)
12:21 21.6°C (70.9 °F) 0.0 kmh (0.0 mph) N 86% 1015.9hPa (30.00 inHg) 0.0mm (0.00 in.)
11:21 22.1°C (71.8 °F) 0.0 kmh (0.0 mph) N 81% 1016.1hPa (30.01 inHg) 0.0mm (0.00 in.)
10:21 22.3°C (72.1 °F) 0.0 kmh (0.0 mph) N 87% 1016.1hPa (30.01 inHg) 0.0mm (0.00 in.)
9:21 22.5°C (72.5 °F) 3.7 kmh (2.3 mph) N 85% 1015.5hPa (29.99 inHg) 0.0mm (0.00 in.)
8:21 22.9°C (73.2 °F) 7.4 kmh (4.6 mph) N 81% 1015.1hPa (29.98 inHg) 0.0mm (0.00 in.)
7:21 23.4°C (74.1 °F) 13.0 kmh (8.1 mph) N 77% 1015.0hPa (29.97 inHg) 0.0mm (0.00 in.)
6:21 24.1°C (75.4 °F) 7.4 kmh (4.6 mph) N 73% 1014.7hPa (29.96 inHg) 0.0mm (0.00 in.)